createdAt,value
2023-01-29T00:02:55.800Z,-7.01
2023-01-29T00:08:01.375Z,-6.46
2023-01-29T00:13:06.813Z,-6.17
2023-01-29T00:18:12.251Z,-6.33
2023-01-29T00:23:17.807Z,-6.68
2023-01-29T00:28:23.117Z,-6.94
2023-01-29T00:33:30.110Z,-7.47
2023-01-29T00:38:36.524Z,-7.56
2023-01-29T00:44:01.659Z,-7.25
2023-01-29T00:49:08.263Z,-7.72
2023-01-29T00:54:13.661Z,-8.39
2023-01-29T00:59:21.354Z,-8.41
2023-01-29T01:04:26.777Z,-8.56
2023-01-29T01:09:52.086Z,-8.81
2023-01-29T01:14:57.596Z,-8.64
2023-01-29T01:20:03.972Z,-8.59
2023-01-29T01:25:10.075Z,-8.67
2023-01-29T01:30:17.609Z,-8.65
2023-01-29T01:35:23.314Z,-8.49
2023-01-29T01:40:28.752Z,-8.28
2023-01-29T01:45:36.256Z,-7.91
2023-01-29T01:50:50.238Z,-7.94
2023-01-29T01:56:03.802Z,-7.72
2023-01-29T02:01:10.333Z,-7.43
2023-01-29T02:06:35.410Z,-7.69
2023-01-29T02:11:41.057Z,-7.30
2023-01-29T02:16:47.103Z,-7.48
2023-01-29T02:22:09.515Z,-6.99
2023-01-29T02:27:49.895Z,-6.79
2023-01-29T02:33:02.395Z,-6.59
2023-01-29T02:38:20.068Z,-6.43
2023-01-29T02:43:45.953Z,-6.11
2023-01-29T02:49:33.998Z,-5.93
2023-01-29T02:55:22.477Z,-5.54
2023-01-29T03:00:38.066Z,-5.29
2023-01-29T03:05:58.895Z,-5.11
2023-01-29T03:11:08.269Z,-5.05
2023-01-29T03:16:50.257Z,-4.79
2023-01-29T03:22:24.733Z,-5.13
2023-01-29T03:28:07.735Z,-4.86
2023-01-29T03:33:26.601Z,-4.50
2023-01-29T03:38:32.749Z,-4.47
2023-01-29T03:43:57.359Z,-4.34
2023-01-29T03:49:27.649Z,-4.27
2023-01-29T03:55:10.221Z,-4.53
2023-01-29T04:00:24.056Z,-4.94
2023-01-29T04:06:21.240Z,-4.69
2023-01-29T04:11:59.492Z,-4.49
2023-01-29T04:17:16.927Z,-4.85
2023-01-29T04:22:38.229Z,-4.35
2023-01-29T04:28:09.282Z,-4.27
2023-01-29T04:33:46.690Z,-4.17
2023-01-29T04:39:14.363Z,-4.14
2023-01-29T04:44:45.578Z,-3.97
2023-01-29T04:50:31.255Z,-3.73
2023-01-29T04:56:01.787Z,-3.58
2023-01-29T05:01:14.239Z,-3.52
2023-01-29T05:06:21.428Z,-3.70
2023-01-29T05:11:27.233Z,-4.35
2023-01-29T05:16:46.128Z,-3.86
2023-01-29T05:21:51.771Z,-3.61
2023-01-29T05:27:16.979Z,-3.39
2023-01-29T05:32:22.175Z,-3.18
2023-01-29T05:37:27.383Z,-3.75
2023-01-29T05:42:33.601Z,-3.49
2023-01-29T05:47:38.907Z,-3.56
2023-01-29T05:52:44.151Z,-3.55
2023-01-29T05:57:49.080Z,-3.53
2023-01-29T06:02:54.497Z,-3.45
2023-01-29T06:07:59.844Z,-3.24
2023-01-29T06:13:05.179Z,-2.98
2023-01-29T06:18:10.649Z,-3.07
2023-01-29T06:23:16.033Z,-3.00
2023-01-29T06:28:21.281Z,-2.65
2023-01-29T06:33:27.043Z,-2.31
2023-01-29T06:38:32.617Z,-2.44
2023-01-29T06:43:38.835Z,-2.15
2023-01-29T06:48:44.576Z,-2.70
2023-01-29T06:53:49.685Z,-2.81
2023-01-29T06:58:55.211Z,-2.77
2023-01-29T07:04:00.429Z,-2.35
2023-01-29T07:09:06.136Z,-2.12
2023-01-29T07:14:11.433Z,-2.18
2023-01-29T07:19:17.120Z,-2.54
2023-01-29T07:24:22.484Z,-1.79
2023-01-29T07:29:27.783Z,-1.46
2023-01-29T07:34:32.864Z,-1.69
2023-01-29T07:39:38.138Z,-1.49
2023-01-29T07:44:43.418Z,-1.18
2023-01-29T07:49:48.882Z,-1.10
2023-01-29T07:54:54.134Z,-0.54
2023-01-29T07:59:59.439Z,-0.43
2023-01-29T08:05:04.987Z,0.16
2023-01-29T08:10:10.827Z,0.29
2023-01-29T08:15:17.971Z,-0.28
2023-01-29T08:20:23.847Z,-0.23
2023-01-29T08:25:29.621Z,0.19
2023-01-29T08:30:35.707Z,0.65
2023-01-29T08:35:41.920Z,0.45
2023-01-29T08:40:47.740Z,0.64
2023-01-29T08:45:53.015Z,0.77
2023-01-29T08:51:03.520Z,0.96
2023-01-29T08:56:09.532Z,1.17
2023-01-29T09:01:15.785Z,1.20
2023-01-29T09:06:21.406Z,1.39
2023-01-29T09:11:27.049Z,1.66
2023-01-29T09:16:32.504Z,1.57
2023-01-29T09:21:38.026Z,1.48
2023-01-29T09:26:43.560Z,1.22
2023-01-29T09:31:48.960Z,1.03
2023-01-29T09:36:54.332Z,0.92
2023-01-29T09:42:36.082Z,0.65
2023-01-29T09:47:41.589Z,0.21
2023-01-29T09:53:22.460Z,-0.09
2023-01-29T09:59:01.349Z,0.09
2023-01-29T10:04:31.856Z,-0.01
2023-01-29T10:10:18.688Z,0.00
2023-01-29T10:15:46.343Z,0.24
2023-01-29T10:20:57.351Z,0.20
2023-01-29T10:26:02.824Z,-0.10
2023-01-29T10:31:33.428Z,-0.27
2023-01-29T10:36:47.508Z,-0.31
2023-01-29T10:42:24.262Z,-0.52
2023-01-29T10:48:22.811Z,-0.65
2023-01-29T10:54:11.525Z,-0.58
2023-01-29T10:59:16.886Z,-0.51
2023-01-29T11:04:22.439Z,-0.61
2023-01-29T11:09:42.466Z,-0.24
2023-01-29T11:15:01.184Z,-0.38
2023-01-29T11:20:28.134Z,0.02
2023-01-29T11:25:33.678Z,-0.26
2023-01-29T11:30:42.595Z,-0.01
2023-01-29T11:35:48.462Z,0.27
2023-01-29T11:41:01.213Z,-0.19
2023-01-29T11:46:15.983Z,-0.02
2023-01-29T11:51:29.511Z,-0.14
2023-01-29T11:56:44.399Z,-0.16
2023-01-29T12:01:49.696Z,0.14
2023-01-29T12:06:55.617Z,-0.03
2023-01-29T12:12:30.430Z,0.42
2023-01-29T12:17:43.264Z,0.49
2023-01-29T12:23:16.114Z,0.82
2023-01-29T12:28:52.790Z,0.69
2023-01-29T12:34:14.098Z,0.69
2023-01-29T12:39:19.625Z,0.79
2023-01-29T12:44:44.150Z,0.83
2023-01-29T12:49:55.267Z,0.82
2023-01-29T12:55:22.857Z,0.88
2023-01-29T13:00:29.058Z,1.04
2023-01-29T13:05:43.308Z,1.20
2023-01-29T13:10:53.007Z,1.14
2023-01-29T13:16:00.639Z,0.66
2023-01-29T13:21:06.975Z,0.09
2023-01-29T13:26:14.036Z,0.05
2023-01-29T13:31:30.249Z,-0.22
2023-01-29T13:36:38.406Z,-0.27
2023-01-29T13:41:44.319Z,-0.43
2023-01-29T13:46:57.023Z,-0.35
2023-01-29T13:52:31.561Z,-0.50
2023-01-29T13:57:45.313Z,-0.73
2023-01-29T14:03:40.000Z,-0.75
2023-01-29T14:08:56.254Z,-0.30
2023-01-29T14:14:01.899Z,-0.08
2023-01-29T14:19:07.397Z,0.09
2023-01-29T14:24:22.880Z,0.11
2023-01-29T14:29:39.939Z,-0.06
2023-01-29T14:35:02.866Z,0.25
2023-01-29T14:40:21.650Z,-0.02
2023-01-29T14:45:35.528Z,-0.03
2023-01-29T14:50:42.654Z,0.04
2023-01-29T14:55:59.827Z,-0.01
2023-01-29T15:01:19.777Z,-0.06
2023-01-29T15:07:17.715Z,-0.56
2023-01-29T15:13:03.696Z,-0.30
2023-01-29T15:18:24.114Z,-0.27
2023-01-29T15:23:32.333Z,-0.48
2023-01-29T15:28:39.404Z,-0.63
2023-01-29T15:33:47.953Z,-0.84
2023-01-29T15:39:31.381Z,-0.53
2023-01-29T15:44:36.738Z,-0.54
2023-01-29T15:49:43.008Z,-0.68
2023-01-29T15:54:49.100Z,-0.57
2023-01-29T15:59:57.294Z,-0.91
2023-01-29T16:05:03.704Z,-1.20
2023-01-29T16:10:30.042Z,-1.29
2023-01-29T16:15:38.550Z,-1.18
2023-01-29T16:20:53.823Z,-0.94
2023-01-29T16:26:04.699Z,-0.49
2023-01-29T16:31:11.684Z,-0.18
2023-01-29T16:36:21.253Z,0.01
2023-01-29T16:41:26.549Z,0.20
2023-01-29T16:46:36.466Z,-0.12
2023-01-29T16:51:41.910Z,-0.03
2023-01-29T16:56:49.457Z,0.05
2023-01-29T17:01:57.695Z,0.10
2023-01-29T17:07:03.647Z,0.44
2023-01-29T17:12:21.012Z,0.45
2023-01-29T17:17:36.845Z,-0.20
2023-01-29T17:22:42.768Z,-0.35
2023-01-29T17:27:52.247Z,-0.52
2023-01-29T17:32:57.699Z,-0.50
2023-01-29T17:38:03.136Z,0.00
2023-01-29T17:43:08.359Z,-0.19
2023-01-29T17:48:26.038Z,-0.27
2023-01-29T17:53:45.379Z,-0.15
2023-01-29T17:58:54.540Z,0.21
2023-01-29T18:04:00.078Z,0.40
2023-01-29T18:09:06.096Z,0.24
2023-01-29T18:14:13.938Z,0.43
2023-01-29T18:19:31.192Z,0.20
2023-01-29T18:24:36.735Z,0.00
2023-01-29T18:29:42.219Z,-0.16
2023-01-29T18:34:47.572Z,0.31
2023-01-29T18:39:54.294Z,0.07
2023-01-29T18:44:59.880Z,0.25
2023-01-29T18:50:06.897Z,-0.18
2023-01-29T18:55:12.186Z,-0.48
2023-01-29T19:00:17.932Z,-0.62
2023-01-29T19:05:25.134Z,-0.19
2023-01-29T19:10:30.487Z,0.04
2023-01-29T19:15:36.557Z,0.05
2023-01-29T19:21:07.881Z,0.22
2023-01-29T19:26:14.156Z,0.24
2023-01-29T19:31:19.495Z,0.12
2023-01-29T19:36:25.256Z,-0.22
2023-01-29T19:41:30.838Z,-0.58
2023-01-29T19:46:36.442Z,-1.12
2023-01-29T19:51:42.019Z,-1.20
2023-01-29T19:56:47.390Z,-0.77
2023-01-29T20:01:52.739Z,-0.30
2023-01-29T20:06:58.152Z,-0.51
2023-01-29T20:12:03.585Z,-0.87
2023-01-29T20:17:09.059Z,-1.11
2023-01-29T20:22:14.497Z,-1.23
2023-01-29T20:27:19.979Z,-1.54
2023-01-29T20:32:25.386Z,-1.56
2023-01-29T20:37:30.671Z,-1.55
2023-01-29T20:42:35.991Z,-1.01
2023-01-29T20:47:41.800Z,-0.84
2023-01-29T20:52:47.750Z,-0.74
2023-01-29T20:58:05.128Z,-0.93
2023-01-29T21:03:14.385Z,-0.69
2023-01-29T21:08:19.788Z,-0.60
2023-01-29T21:13:25.184Z,-1.34
2023-01-29T21:18:30.814Z,-1.55
2023-01-29T21:23:35.834Z,-1.39
2023-01-29T21:28:41.297Z,-1.25
2023-01-29T21:33:46.638Z,-1.00
2023-01-29T21:38:51.888Z,-0.78
2023-01-29T21:43:57.019Z,-0.61
2023-01-29T21:49:02.690Z,-0.90
2023-01-29T21:54:08.139Z,-1.30
2023-01-29T21:59:13.571Z,-1.68
2023-01-29T22:04:19.054Z,-1.98
2023-01-29T22:09:24.507Z,-1.63
2023-01-29T22:14:30.060Z,-1.80
2023-01-29T22:19:35.419Z,-1.91
2023-01-29T22:24:41.695Z,-1.99
2023-01-29T22:29:47.224Z,-1.87
2023-01-29T22:34:52.608Z,-1.77
2023-01-29T22:39:58.319Z,-1.36
2023-01-29T22:45:03.763Z,-1.24
2023-01-29T22:50:09.875Z,-0.92
2023-01-29T22:55:15.299Z,-0.69
2023-01-29T23:00:21.003Z,-0.54
2023-01-29T23:05:26.253Z,-1.39
2023-01-29T23:10:31.638Z,-1.57
2023-01-29T23:15:37.155Z,-1.44
2023-01-29T23:20:44.707Z,-0.98
2023-01-29T23:26:09.960Z,-1.28
2023-01-29T23:31:15.891Z,-1.73
2023-01-29T23:36:21.350Z,-2.07
2023-01-29T23:41:26.787Z,-2.27
2023-01-29T23:46:32.697Z,-2.06
2023-01-29T23:51:38.210Z,-2.10
2023-01-29T23:56:44.527Z,-1.69
